sensor_id;sensor_type;location;lat;lon;timestamp;temperature;humidity
8953;DHT22;4511;50.890;8.054;2022-08-03T00:01:21;20.30;99.90
8953;DHT22;4511;50.890;8.054;2022-08-03T00:03:48;20.40;99.90
8953;DHT22;4511;50.890;8.054;2022-08-03T00:06:15;20.40;99.90
8953;DHT22;4511;50.890;8.054;2022-08-03T00:08:41;20.40;99.90
8953;DHT22;4511;50.890;8.054;2022-08-03T00:11:10;20.20;99.90
8953;DHT22;4511;50.890;8.054;2022-08-03T00:13:36;20.20;99.90
8953;DHT22;4511;50.890;8.054;2022-08-03T00:16:04;20.20;99.90
8953;DHT22;4511;50.890;8.054;2022-08-03T00:18:31;20.10;99.90
8953;DHT22;4511;50.890;8.054;2022-08-03T00:20:57;20.10;99.90
8953;DHT22;4511;50.890;8.054;2022-08-03T00:23:24;20.10;99.90
8953;DHT22;4511;50.890;8.054;2022-08-03T00:25:51;20.00;99.90
8953;DHT22;4511;50.890;8.054;2022-08-03T00:28:19;20.00;99.90
8953;DHT22;4511;50.890;8.054;2022-08-03T00:30:46;19.90;99.90
8953;DHT22;4511;50.890;8.054;2022-08-03T00:33:13;19.90;99.90
8953;DHT22;4511;50.890;8.054;2022-08-03T00:35:39;19.90;99.90
8953;DHT22;4511;50.890;8.054;2022-08-03T00:38:06;19.90;99.90
8953;DHT22;4511;50.890;8.054;2022-08-03T00:40:33;19.90;99.90
8953;DHT22;4511;50.890;8.054;2022-08-03T00:43:03;19.80;99.90
8953;DHT22;4511;50.890;8.054;2022-08-03T00:45:33;19.80;99.90
8953;DHT22;4511;50.890;8.054;2022-08-03T00:48:01;19.80;99.90
8953;DHT22;4511;50.890;8.054;2022-08-03T00:50:31;19.80;99.90
8953;DHT22;4511;50.890;8.054;2022-08-03T00:53:00;19.80;99.90
8953;DHT22;4511;50.890;8.054;2022-08-03T00:55:28;19.70;99.90
8953;DHT22;4511;50.890;8.054;2022-08-03T00:57:55;19.80;99.90
8953;DHT22;4511;50.890;8.054;2022-08-03T01:00:25;19.70;99.90
8953;DHT22;4511;50.890;8.054;2022-08-03T01:02:54;19.70;99.90
8953;DHT22;4511;50.890;8.054;2022-08-03T01:05:21;19.70;99.90
8953;DHT22;4511;50.890;8.054;2022-08-03T01:07:59;19.60;99.90
8953;DHT22;4511;50.890;8.054;2022-08-03T01:10:33;19.60;99.90
8953;DHT22;4511;50.890;8.054;2022-08-03T01:13:10;19.60;99.90
8953;DHT22;4511;50.890;8.054;2022-08-03T01:15:45;19.40;99.90
8953;DHT22;4511;50.890;8.054;2022-08-03T01:18:19;19.40;99.90
8953;DHT22;4511;50.890;8.054;2022-08-03T01:20:51;19.40;99.90
8953;DHT22;4511;50.890;8.054;2022-08-03T01:26:22;19.50;99.90
8953;DHT22;4511;50.890;8.054;2022-08-03T01:29:03;19.40;99.90
8953;DHT22;4511;50.890;8.054;2022-08-03T01:31:38;19.40;99.90
8953;DHT22;4511;50.890;8.054;2022-08-03T01:34:07;19.40;99.90
8953;DHT22;4511;50.890;8.054;2022-08-03T01:36:38;19.30;99.90
8953;DHT22;4511;50.890;8.054;2022-08-03T01:39:06;19.30;99.90
8953;DHT22;4511;50.890;8.054;2022-08-03T01:41:39;19.30;99.90
8953;DHT22;4511;50.890;8.054;2022-08-03T01:44:09;19.30;99.90
8953;DHT22;4511;50.890;8.054;2022-08-03T01:46:39;19.20;99.90
8953;DHT22;4511;50.890;8.054;2022-08-03T01:49:07;19.20;99.90
8953;DHT22;4511;50.890;8.054;2022-08-03T01:51:37;19.20;99.90
8953;DHT22;4511;50.890;8.054;2022-08-03T01:54:05;19.20;99.90
8953;DHT22;4511;50.890;8.054;2022-08-03T01:56:33;19.30;99.90
8953;DHT22;4511;50.890;8.054;2022-08-03T01:59:01;19.30;99.90
8953;DHT22;4511;50.890;8.054;2022-08-03T02:01:29;19.20;99.90
8953;DHT22;4511;50.890;8.054;2022-08-03T02:04:00;19.20;99.90
8953;DHT22;4511;50.890;8.054;2022-08-03T02:06:30;19.10;99.90
8953;DHT22;4511;50.890;8.054;2022-08-03T02:08:58;19.10;99.90
8953;DHT22;4511;50.890;8.054;2022-08-03T02:11:26;19.10;99.90
8953;DHT22;4511;50.890;8.054;2022-08-03T02:13:53;19.00;99.90
8953;DHT22;4511;50.890;8.054;2022-08-03T02:16:22;19.00;99.90
8953;DHT22;4511;50.890;8.054;2022-08-03T02:18:50;19.00;99.90
8953;DHT22;4511;50.890;8.054;2022-08-03T02:21:20;18.90;99.90
8953;DHT22;4511;50.890;8.054;2022-08-03T02:23:47;18.90;99.90
8953;DHT22;4511;50.890;8.054;2022-08-03T02:26:16;18.80;99.90
8953;DHT22;4511;50.890;8.054;2022-08-03T02:28:47;18.90;99.90
8953;DHT22;4511;50.890;8.054;2022-08-03T02:31:21;18.90;99.90
8953;DHT22;4511;50.890;8.054;2022-08-03T02:33:51;18.80;99.90
8953;DHT22;4511;50.890;8.054;2022-08-03T02:36:23;18.80;99.90
8953;DHT22;4511;50.890;8.054;2022-08-03T02:38:53;18.80;99.90
8953;DHT22;4511;50.890;8.054;2022-08-03T02:41:23;18.80;99.90
8953;DHT22;4511;50.890;8.054;2022-08-03T02:43:52;18.70;99.90
8953;DHT22;4511;50.890;8.054;2022-08-03T02:46:23;18.60;99.90
8953;DHT22;4511;50.890;8.054;2022-08-03T02:48:51;18.70;99.90
8953;DHT22;4511;50.890;8.054;2022-08-03T02:51:21;18.70;99.90
8953;DHT22;4511;50.890;8.054;2022-08-03T02:53:50;18.70;99.90
8953;DHT22;4511;50.890;8.054;2022-08-03T02:56:18;18.70;99.90
8953;DHT22;4511;50.890;8.054;2022-08-03T02:58:46;18.70;99.90
8953;DHT22;4511;50.890;8.054;2022-08-03T03:01:15;18.60;99.90
8953;DHT22;4511;50.890;8.054;2022-08-03T03:03:44;18.60;99.90
8953;DHT22;4511;50.890;8.054;2022-08-03T03:06:12;18.50;99.90
8953;DHT22;4511;50.890;8.054;2022-08-03T03:08:40;18.50;99.90
8953;DHT22;4511;50.890;8.054;2022-08-03T03:11:07;18.60;99.90
8953;DHT22;4511;50.890;8.054;2022-08-03T03:13:35;18.50;99.90
8953;DHT22;4511;50.890;8.054;2022-08-03T03:16:05;18.50;99.90
8953;DHT22;4511;50.890;8.054;2022-08-03T03:18:32;18.50;99.90
8953;DHT22;4511;50.890;8.054;2022-08-03T03:21:01;18.40;99.90
8953;DHT22;4511;50.890;8.054;2022-08-03T03:23:28;18.40;99.90
8953;DHT22;4511;50.890;8.054;2022-08-03T03:25:58;18.40;99.90
8953;DHT22;4511;50.890;8.054;2022-08-03T03:28:26;18.40;99.90
8953;DHT22;4511;50.890;8.054;2022-08-03T03:30:53;18.50;99.90
8953;DHT22;4511;50.890;8.054;2022-08-03T03:33:21;18.40;99.90
8953;DHT22;4511;50.890;8.054;2022-08-03T03:35:48;18.40;99.90
8953;DHT22;4511;50.890;8.054;2022-08-03T03:38:16;18.20;99.90
8953;DHT22;4511;50.890;8.054;2022-08-03T03:40:43;18.10;99.90
8953;DHT22;4511;50.890;8.054;2022-08-03T03:43:12;18.10;99.90
8953;DHT22;4511;50.890;8.054;2022-08-03T03:45:40;18.10;99.90
8953;DHT22;4511;50.890;8.054;2022-08-03T03:48:08;18.00;99.90
8953;DHT22;4511;50.890;8.054;2022-08-03T03:50:36;18.00;99.90
8953;DHT22;4511;50.890;8.054;2022-08-03T03:53:08;18.00;99.90
8953;DHT22;4511;50.890;8.054;2022-08-03T03:55:35;18.10;99.90
8953;DHT22;4511;50.890;8.054;2022-08-03T03:58:02;18.00;99.90
8953;DHT22;4511;50.890;8.054;2022-08-03T04:00:30;17.90;99.90
8953;DHT22;4511;50.890;8.054;2022-08-03T04:02:57;18.00;99.90
8953;DHT22;4511;50.890;8.054;2022-08-03T04:05:24;18.00;99.90
8953;DHT22;4511;50.890;8.054;2022-08-03T04:08:11;18.10;99.90
8953;DHT22;4511;50.890;8.054;2022-08-03T04:11:04;18.10;99.90
8953;DHT22;4511;50.890;8.054;2022-08-03T04:13:36;18.10;99.90
8953;DHT22;4511;50.890;8.054;2022-08-03T04:16:06;18.00;99.90
8953;DHT22;4511;50.890;8.054;2022-08-03T04:18:33;18.00;99.90
8953;DHT22;4511;50.890;8.054;2022-08-03T04:21:06;18.00;99.90
8953;DHT22;4511;50.890;8.054;2022-08-03T04:23:39;17.90;99.90
8953;DHT22;4511;50.890;8.054;2022-08-03T04:26:10;17.80;99.90
8953;DHT22;4511;50.890;8.054;2022-08-03T04:28:38;17.90;99.90
8953;DHT22;4511;50.890;8.054;2022-08-03T04:31:07;18.10;99.90
8953;DHT22;4511;50.890;8.054;2022-08-03T04:33:36;18.10;99.90
8953;DHT22;4511;50.890;8.054;2022-08-03T04:36:06;18.10;99.90
8953;DHT22;4511;50.890;8.054;2022-08-03T04:38:37;18.00;99.90
8953;DHT22;4511;50.890;8.054;2022-08-03T04:41:06;18.10;99.90
8953;DHT22;4511;50.890;8.054;2022-08-03T04:43:34;18.00;99.90
8953;DHT22;4511;50.890;8.054;2022-08-03T04:46:04;18.00;99.90
8953;DHT22;4511;50.890;8.054;2022-08-03T04:48:33;18.10;99.90
8953;DHT22;4511;50.890;8.054;2022-08-03T04:51:00;18.20;99.90
8953;DHT22;4511;50.890;8.054;2022-08-03T04:53:29;18.10;99.90
8953;DHT22;4511;50.890;8.054;2022-08-03T04:56:03;18.10;99.90
8953;DHT22;4511;50.890;8.054;2022-08-03T04:58:30;18.20;99.90
8953;DHT22;4511;50.890;8.054;2022-08-03T05:00:56;18.20;99.90
8953;DHT22;4511;50.890;8.054;2022-08-03T05:03:23;18.40;99.90
8953;DHT22;4511;50.890;8.054;2022-08-03T05:05:52;18.60;99.90
8953;DHT22;4511;50.890;8.054;2022-08-03T05:08:19;18.60;99.90
8953;DHT22;4511;50.890;8.054;2022-08-03T05:10:46;18.60;99.90
8953;DHT22;4511;50.890;8.054;2022-08-03T05:13:13;18.60;99.90
8953;DHT22;4511;50.890;8.054;2022-08-03T05:15:40;18.70;99.90
8953;DHT22;4511;50.890;8.054;2022-08-03T05:18:07;18.80;99.90
8953;DHT22;4511;50.890;8.054;2022-08-03T05:20:34;18.90;99.90
8953;DHT22;4511;50.890;8.054;2022-08-03T05:23:02;19.00;99.90
8953;DHT22;4511;50.890;8.054;2022-08-03T05:25:29;18.90;99.90
8953;DHT22;4511;50.890;8.054;2022-08-03T05:27:55;19.30;99.90
8953;DHT22;4511;50.890;8.054;2022-08-03T05:30:22;19.20;99.90
8953;DHT22;4511;50.890;8.054;2022-08-03T05:32:49;19.20;99.90
8953;DHT22;4511;50.890;8.054;2022-08-03T05:35:15;19.10;99.90
8953;DHT22;4511;50.890;8.054;2022-08-03T05:37:42;19.10;99.90
8953;DHT22;4511;50.890;8.054;2022-08-03T05:40:11;18.80;99.90
8953;DHT22;4511;50.890;8.054;2022-08-03T05:42:39;18.80;99.90
8953;DHT22;4511;50.890;8.054;2022-08-03T05:45:06;18.90;99.90
8953;DHT22;4511;50.890;8.054;2022-08-03T05:47:39;19.10;99.90
8953;DHT22;4511;50.890;8.054;2022-08-03T05:50:06;19.20;99.90
8953;DHT22;4511;50.890;8.054;2022-08-03T05:52:33;19.30;99.90
8953;DHT22;4511;50.890;8.054;2022-08-03T05:55:00;19.40;99.90
8953;DHT22;4511;50.890;8.054;2022-08-03T05:57:28;19.50;99.90
8953;DHT22;4511;50.890;8.054;2022-08-03T05:59:55;19.50;99.90
8953;DHT22;4511;50.890;8.054;2022-08-03T06:02:21;19.50;99.90
8953;DHT22;4511;50.890;8.054;2022-08-03T06:04:48;19.50;99.90
8953;DHT22;4511;50.890;8.054;2022-08-03T06:07:15;19.50;99.90
8953;DHT22;4511;50.890;8.054;2022-08-03T06:09:41;19.60;99.90
8953;DHT22;4511;50.890;8.054;2022-08-03T06:12:08;19.70;99.90
8953;DHT22;4511;50.890;8.054;2022-08-03T06:14:36;19.80;99.90
8953;DHT22;4511;50.890;8.054;2022-08-03T06:17:03;19.80;99.90
8953;DHT22;4511;50.890;8.054;2022-08-03T06:19:30;19.90;99.90
8953;DHT22;4511;50.890;8.054;2022-08-03T06:21:57;20.00;99.90
8953;DHT22;4511;50.890;8.054;2022-08-03T06:24:24;20.00;99.90
8953;DHT22;4511;50.890;8.054;2022-08-03T06:26:50;20.20;99.90
8953;DHT22;4511;50.890;8.054;2022-08-03T06:29:17;20.20;99.90
8953;DHT22;4511;50.890;8.054;2022-08-03T06:31:45;20.30;99.90
8953;DHT22;4511;50.890;8.054;2022-08-03T06:34:12;20.40;99.90
8953;DHT22;4511;50.890;8.054;2022-08-03T06:36:39;20.40;99.90
8953;DHT22;4511;50.890;8.054;2022-08-03T06:39:06;20.50;99.90
8953;DHT22;4511;50.890;8.054;2022-08-03T06:41:32;20.60;99.90
8953;DHT22;4511;50.890;8.054;2022-08-03T06:43:59;20.60;99.90
8953;DHT22;4511;50.890;8.054;2022-08-03T06:46:26;20.70;99.90
8953;DHT22;4511;50.890;8.054;2022-08-03T06:48:54;20.80;99.90
8953;DHT22;4511;50.890;8.054;2022-08-03T06:51:21;20.90;99.90
8953;DHT22;4511;50.890;8.054;2022-08-03T06:53:48;21.00;99.90
8953;DHT22;4511;50.890;8.054;2022-08-03T06:56:14;21.10;99.90
8953;DHT22;4511;50.890;8.054;2022-08-03T06:58:41;21.10;99.90
8953;DHT22;4511;50.890;8.054;2022-08-03T07:01:08;21.20;99.90
8953;DHT22;4511;50.890;8.054;2022-08-03T07:03:34;21.30;99.90
8953;DHT22;4511;50.890;8.054;2022-08-03T07:06:02;21.30;99.90
8953;DHT22;4511;50.890;8.054;2022-08-03T07:08:29;21.40;99.90
8953;DHT22;4511;50.890;8.054;2022-08-03T07:10:56;21.50;99.90
8953;DHT22;4511;50.890;8.054;2022-08-03T07:13:22;21.60;99.90
8953;DHT22;4511;50.890;8.054;2022-08-03T07:15:49;21.70;99.90
8953;DHT22;4511;50.890;8.054;2022-08-03T07:18:16;21.80;99.90
8953;DHT22;4511;50.890;8.054;2022-08-03T07:20:42;21.80;99.90
8953;DHT22;4511;50.890;8.054;2022-08-03T07:23:10;21.90;99.90
8953;DHT22;4511;50.890;8.054;2022-08-03T07:25:37;22.00;99.90
8953;DHT22;4511;50.890;8.054;2022-08-03T07:28:04;22.10;99.90
8953;DHT22;4511;50.890;8.054;2022-08-03T07:30:31;22.10;99.90
8953;DHT22;4511;50.890;8.054;2022-08-03T07:32:58;22.20;99.90
8953;DHT22;4511;50.890;8.054;2022-08-03T07:35:25;22.30;99.90
8953;DHT22;4511;50.890;8.054;2022-08-03T07:37:51;22.40;99.90
8953;DHT22;4511;50.890;8.054;2022-08-03T07:40:19;22.40;99.90
8953;DHT22;4511;50.890;8.054;2022-08-03T07:42:46;22.50;99.90
8953;DHT22;4511;50.890;8.054;2022-08-03T07:45:13;22.70;99.90
8953;DHT22;4511;50.890;8.054;2022-08-03T07:47:39;22.60;99.90
8953;DHT22;4511;50.890;8.054;2022-08-03T07:50:07;22.70;99.90
8953;DHT22;4511;50.890;8.054;2022-08-03T07:52:34;22.90;99.90
8953;DHT22;4511;50.890;8.054;2022-08-03T07:55:20;22.90;99.90
8953;DHT22;4511;50.890;8.054;2022-08-03T07:57:47;23.00;99.90
8953;DHT22;4511;50.890;8.054;2022-08-03T08:00:24;23.10;99.90
8953;DHT22;4511;50.890;8.054;2022-08-03T08:02:51;23.20;99.90
8953;DHT22;4511;50.890;8.054;2022-08-03T08:05:18;23.20;99.90
8953;DHT22;4511;50.890;8.054;2022-08-03T08:07:44;23.30;99.90
8953;DHT22;4511;50.890;8.054;2022-08-03T08:10:11;23.40;99.90
8953;DHT22;4511;50.890;8.054;2022-08-03T08:12:40;23.40;99.90
8953;DHT22;4511;50.890;8.054;2022-08-03T08:15:07;23.50;99.90
8953;DHT22;4511;50.890;8.054;2022-08-03T08:17:41;23.50;99.90
8953;DHT22;4511;50.890;8.054;2022-08-03T08:20:09;23.60;99.90
8953;DHT22;4511;50.890;8.054;2022-08-03T08:22:36;23.70;99.90
8953;DHT22;4511;50.890;8.054;2022-08-03T08:25:03;23.80;99.90
8953;DHT22;4511;50.890;8.054;2022-08-03T08:27:29;23.90;99.90
8953;DHT22;4511;50.890;8.054;2022-08-03T08:29:57;24.00;99.90
8953;DHT22;4511;50.890;8.054;2022-08-03T08:32:24;24.10;99.90
8953;DHT22;4511;50.890;8.054;2022-08-03T08:34:51;24.10;99.90
8953;DHT22;4511;50.890;8.054;2022-08-03T08:37:18;24.20;99.90
8953;DHT22;4511;50.890;8.054;2022-08-03T08:39:45;24.30;99.90
8953;DHT22;4511;50.890;8.054;2022-08-03T08:42:11;24.40;99.90
8953;DHT22;4511;50.890;8.054;2022-08-03T08:44:38;24.60;99.90
8953;DHT22;4511;50.890;8.054;2022-08-03T08:47:07;24.60;99.90
8953;DHT22;4511;50.890;8.054;2022-08-03T08:49:35;24.70;99.90
8953;DHT22;4511;50.890;8.054;2022-08-03T08:52:04;24.80;99.90
8953;DHT22;4511;50.890;8.054;2022-08-03T08:54:35;24.90;99.90
8953;DHT22;4511;50.890;8.054;2022-08-03T08:57:03;24.90;99.90
8953;DHT22;4511;50.890;8.054;2022-08-03T08:59:32;25.20;99.90
8953;DHT22;4511;50.890;8.054;2022-08-03T09:01:59;25.30;99.90
8953;DHT22;4511;50.890;8.054;2022-08-03T09:04:28;25.50;99.90
8953;DHT22;4511;50.890;8.054;2022-08-03T09:06:55;25.60;99.90
8953;DHT22;4511;50.890;8.054;2022-08-03T09:09:22;25.50;99.90
8953;DHT22;4511;50.890;8.054;2022-08-03T09:11:49;25.50;99.90
8953;DHT22;4511;50.890;8.054;2022-08-03T09:14:15;25.60;99.90
8953;DHT22;4511;50.890;8.054;2022-08-03T09:16:54;26.00;99.90
8953;DHT22;4511;50.890;8.054;2022-08-03T09:19:22;26.20;99.90
8953;DHT22;4511;50.890;8.054;2022-08-03T09:22:06;26.10;99.90
8953;DHT22;4511;50.890;8.054;2022-08-03T09:24:33;26.30;99.90
8953;DHT22;4511;50.890;8.054;2022-08-03T09:27:00;26.30;99.90
8953;DHT22;4511;50.890;8.054;2022-08-03T09:29:31;26.40;99.90
8953;DHT22;4511;50.890;8.054;2022-08-03T09:32:00;26.40;99.90
8953;DHT22;4511;50.890;8.054;2022-08-03T09:34:27;26.50;99.90
8953;DHT22;4511;50.890;8.054;2022-08-03T09:36:56;26.70;99.90
8953;DHT22;4511;50.890;8.054;2022-08-03T09:39:25;26.70;99.90
8953;DHT22;4511;50.890;8.054;2022-08-03T09:42:06;26.80;99.90
8953;DHT22;4511;50.890;8.054;2022-08-03T09:44:34;26.80;99.90
8953;DHT22;4511;50.890;8.054;2022-08-03T09:47:01;26.90;99.90
8953;DHT22;4511;50.890;8.054;2022-08-03T09:49:29;27.10;99.90
8953;DHT22;4511;50.890;8.054;2022-08-03T09:52:00;27.10;99.90
8953;DHT22;4511;50.890;8.054;2022-08-03T09:54:28;27.30;99.90
8953;DHT22;4511;50.890;8.054;2022-08-03T09:56:56;27.20;99.90
8953;DHT22;4511;50.890;8.054;2022-08-03T09:59:24;27.40;99.90
8953;DHT22;4511;50.890;8.054;2022-08-03T10:01:51;27.40;99.90
8953;DHT22;4511;50.890;8.054;2022-08-03T10:04:19;27.50;99.90
8953;DHT22;4511;50.890;8.054;2022-08-03T10:07:04;27.70;99.90
8953;DHT22;4511;50.890;8.054;2022-08-03T10:09:31;27.90;99.90
8953;DHT22;4511;50.890;8.054;2022-08-03T10:12:06;28.00;99.90
8953;DHT22;4511;50.890;8.054;2022-08-03T10:14:35;28.20;99.90
8953;DHT22;4511;50.890;8.054;2022-08-03T10:17:02;28.30;99.90
8953;DHT22;4511;50.890;8.054;2022-08-03T10:19:29;28.30;99.90
8953;DHT22;4511;50.890;8.054;2022-08-03T10:22:00;28.40;99.90
8953;DHT22;4511;50.890;8.054;2022-08-03T10:24:30;28.40;99.90
8953;DHT22;4511;50.890;8.054;2022-08-03T10:27:01;28.50;99.90
8953;DHT22;4511;50.890;8.054;2022-08-03T10:29:28;28.70;99.90
8953;DHT22;4511;50.890;8.054;2022-08-03T10:32:00;28.80;99.90
8953;DHT22;4511;50.890;8.054;2022-08-03T10:34:33;28.90;99.90
8953;DHT22;4511;50.890;8.054;2022-08-03T10:37:04;29.10;99.90
8953;DHT22;4511;50.890;8.054;2022-08-03T10:39:35;29.30;99.90
8953;DHT22;4511;50.890;8.054;2022-08-03T10:42:02;29.60;99.90
8953;DHT22;4511;50.890;8.054;2022-08-03T10:44:32;29.80;99.90
8953;DHT22;4511;50.890;8.054;2022-08-03T10:47:03;29.80;99.40
8953;DHT22;4511;50.890;8.054;2022-08-03T10:49:30;29.80;99.70
8953;DHT22;4511;50.890;8.054;2022-08-03T10:51:57;30.10;99.00
8953;DHT22;4511;50.890;8.054;2022-08-03T10:57:46;30.50;97.10
8953;DHT22;4511;50.890;8.054;2022-08-03T11:00:14;30.80;97.30
8953;DHT22;4511;50.890;8.054;2022-08-03T11:03:09;30.80;96.90
8953;DHT22;4511;50.890;8.054;2022-08-03T11:05:38;30.80;97.00
8953;DHT22;4511;50.890;8.054;2022-08-03T11:08:20;30.90;96.70
8953;DHT22;4511;50.890;8.054;2022-08-03T11:10:48;30.90;96.10
8953;DHT22;4511;50.890;8.054;2022-08-03T11:13:18;31.10;95.40
8953;DHT22;4511;50.890;8.054;2022-08-03T11:15:48;31.30;95.40
8953;DHT22;4511;50.890;8.054;2022-08-03T11:18:15;31.40;94.60
8953;DHT22;4511;50.890;8.054;2022-08-03T11:20:46;31.60;93.90
8953;DHT22;4511;50.890;8.054;2022-08-03T11:23:14;31.70;94.00
8953;DHT22;4511;50.890;8.054;2022-08-03T11:26:13;31.60;93.70
8953;DHT22;4511;50.890;8.054;2022-08-03T11:28:43;31.80;93.50
8953;DHT22;4511;50.890;8.054;2022-08-03T11:34:22;32.00;93.00
8953;DHT22;4511;50.890;8.054;2022-08-03T11:37:20;32.30;92.40
8953;DHT22;4511;50.890;8.054;2022-08-03T11:39:50;32.30;92.00
8953;DHT22;4511;50.890;8.054;2022-08-03T11:42:39;32.60;91.80
8953;DHT22;4511;50.890;8.054;2022-08-03T11:45:10;32.80;90.40
8953;DHT22;4511;50.890;8.054;2022-08-03T11:47:38;33.00;90.70
8953;DHT22;4511;50.890;8.054;2022-08-03T11:50:05;32.90;91.00
8953;DHT22;4511;50.890;8.054;2022-08-03T11:52:38;33.20;90.80
8953;DHT22;4511;50.890;8.054;2022-08-03T11:55:13;33.40;89.20
8953;DHT22;4511;50.890;8.054;2022-08-03T11:57:40;33.60;87.20
8953;DHT22;4511;50.890;8.054;2022-08-03T12:00:29;33.70;86.90
8953;DHT22;4511;50.890;8.054;2022-08-03T12:02:58;33.40;86.00
8953;DHT22;4511;50.890;8.054;2022-08-03T12:05:40;33.70;86.10
8953;DHT22;4511;50.890;8.054;2022-08-03T12:08:09;33.90;85.00
8953;DHT22;4511;50.890;8.054;2022-08-03T12:10:36;34.30;85.10
8953;DHT22;4511;50.890;8.054;2022-08-03T12:13:04;34.00;83.30
8953;DHT22;4511;50.890;8.054;2022-08-03T12:15:35;34.10;85.00
8953;DHT22;4511;50.890;8.054;2022-08-03T12:18:12;34.20;83.70
8953;DHT22;4511;50.890;8.054;2022-08-03T12:20:39;34.40;80.50
8953;DHT22;4511;50.890;8.054;2022-08-03T12:23:07;34.60;79.70
8953;DHT22;4511;50.890;8.054;2022-08-03T12:25:34;33.90;81.70
8953;DHT22;4511;50.890;8.054;2022-08-03T12:28:12;34.00;80.50
8953;DHT22;4511;50.890;8.054;2022-08-03T12:30:42;32.80;81.00
8953;DHT22;4511;50.890;8.054;2022-08-03T12:33:14;33.70;81.50
8953;DHT22;4511;50.890;8.054;2022-08-03T12:35:41;33.80;80.20
8953;DHT22;4511;50.890;8.054;2022-08-03T12:38:08;34.30;79.90
8953;DHT22;4511;50.890;8.054;2022-08-03T12:40:35;34.60;79.20
8953;DHT22;4511;50.890;8.054;2022-08-03T12:43:09;34.90;76.30
8953;DHT22;4511;50.890;8.054;2022-08-03T12:45:36;35.10;76.00
8953;DHT22;4511;50.890;8.054;2022-08-03T12:48:08;35.00;76.30
8953;DHT22;4511;50.890;8.054;2022-08-03T12:50:36;35.50;74.50
8953;DHT22;4511;50.890;8.054;2022-08-03T12:53:05;35.50;74.20
8953;DHT22;4511;50.890;8.054;2022-08-03T12:55:32;35.40;73.70
8953;DHT22;4511;50.890;8.054;2022-08-03T12:57:59;35.30;74.20
8953;DHT22;4511;50.890;8.054;2022-08-03T13:00:26;35.60;72.90
8953;DHT22;4511;50.890;8.054;2022-08-03T13:02:58;35.60;72.60
8953;DHT22;4511;50.890;8.054;2022-08-03T13:05:27;36.10;71.60
8953;DHT22;4511;50.890;8.054;2022-08-03T13:07:54;36.60;70.80
8953;DHT22;4511;50.890;8.054;2022-08-03T13:10:28;37.10;69.30
8953;DHT22;4511;50.890;8.054;2022-08-03T13:12:56;37.30;67.70
8953;DHT22;4511;50.890;8.054;2022-08-03T13:15:25;37.40;66.60
8953;DHT22;4511;50.890;8.054;2022-08-03T13:17:52;37.30;67.00
8953;DHT22;4511;50.890;8.054;2022-08-03T13:20:19;37.40;65.40
8953;DHT22;4511;50.890;8.054;2022-08-03T13:22:48;37.30;64.20
8953;DHT22;4511;50.890;8.054;2022-08-03T13:25:15;36.90;64.70
8953;DHT22;4511;50.890;8.054;2022-08-03T13:27:42;37.00;64.60
8953;DHT22;4511;50.890;8.054;2022-08-03T13:30:09;37.30;64.60
8953;DHT22;4511;50.890;8.054;2022-08-03T13:32:37;37.60;63.30
8953;DHT22;4511;50.890;8.054;2022-08-03T13:35:04;38.10;62.30
8953;DHT22;4511;50.890;8.054;2022-08-03T13:37:31;38.60;59.90
8953;DHT22;4511;50.890;8.054;2022-08-03T13:40:00;38.90;60.20
8953;DHT22;4511;50.890;8.054;2022-08-03T13:42:29;39.00;59.80
8953;DHT22;4511;50.890;8.054;2022-08-03T13:44:56;39.10;58.60
8953;DHT22;4511;50.890;8.054;2022-08-03T13:47:23;39.10;57.90
8953;DHT22;4511;50.890;8.054;2022-08-03T13:49:49;39.30;58.30
8953;DHT22;4511;50.890;8.054;2022-08-03T13:52:17;39.70;56.90
8953;DHT22;4511;50.890;8.054;2022-08-03T13:54:44;39.70;56.40
8953;DHT22;4511;50.890;8.054;2022-08-03T13:57:12;38.60;56.20
8953;DHT22;4511;50.890;8.054;2022-08-03T13:59:39;38.40;56.70
8953;DHT22;4511;50.890;8.054;2022-08-03T14:02:05;37.70;57.50
8953;DHT22;4511;50.890;8.054;2022-08-03T14:04:32;37.10;57.50
8953;DHT22;4511;50.890;8.054;2022-08-03T14:06:59;36.30;58.80
8953;DHT22;4511;50.890;8.054;2022-08-03T14:09:25;36.00;59.70
8953;DHT22;4511;50.890;8.054;2022-08-03T14:11:53;35.90;59.60
8953;DHT22;4511;50.890;8.054;2022-08-03T14:14:21;36.60;59.70
8953;DHT22;4511;50.890;8.054;2022-08-03T14:16:47;37.00;57.60
8953;DHT22;4511;50.890;8.054;2022-08-03T14:19:14;37.50;55.50
8953;DHT22;4511;50.890;8.054;2022-08-03T14:21:41;38.00;55.90
8953;DHT22;4511;50.890;8.054;2022-08-03T14:24:08;38.90;55.70
8953;DHT22;4511;50.890;8.054;2022-08-03T14:26:35;39.10;54.90
8953;DHT22;4511;50.890;8.054;2022-08-03T14:29:01;39.70;52.50
8953;DHT22;4511;50.890;8.054;2022-08-03T14:31:30;38.70;52.90
8953;DHT22;4511;50.890;8.054;2022-08-03T14:33:57;39.10;52.00
8953;DHT22;4511;50.890;8.054;2022-08-03T14:36:24;39.00;52.70
8953;DHT22;4511;50.890;8.054;2022-08-03T14:38:50;38.80;52.20
8953;DHT22;4511;50.890;8.054;2022-08-03T14:41:17;39.20;51.50
8953;DHT22;4511;50.890;8.054;2022-08-03T14:43:44;39.60;51.30
8953;DHT22;4511;50.890;8.054;2022-08-03T14:46:11;39.30;51.30
8953;DHT22;4511;50.890;8.054;2022-08-03T14:48:39;39.30;51.00
8953;DHT22;4511;50.890;8.054;2022-08-03T14:51:06;39.00;51.20
8953;DHT22;4511;50.890;8.054;2022-08-03T14:53:33;37.90;52.00
8953;DHT22;4511;50.890;8.054;2022-08-03T14:55:59;37.20;53.20
8953;DHT22;4511;50.890;8.054;2022-08-03T14:58:26;36.20;54.70
8953;DHT22;4511;50.890;8.054;2022-08-03T15:00:54;36.10;55.40
8953;DHT22;4511;50.890;8.054;2022-08-03T15:03:22;35.40;55.40
8953;DHT22;4511;50.890;8.054;2022-08-03T15:05:50;35.50;56.00
8953;DHT22;4511;50.890;8.054;2022-08-03T15:08:17;35.60;56.10
8953;DHT22;4511;50.890;8.054;2022-08-03T15:10:44;35.30;56.70
8953;DHT22;4511;50.890;8.054;2022-08-03T15:13:11;35.60;56.40
8953;DHT22;4511;50.890;8.054;2022-08-03T15:15:38;36.60;56.60
8953;DHT22;4511;50.890;8.054;2022-08-03T15:18:05;37.00;54.90
8953;DHT22;4511;50.890;8.054;2022-08-03T15:20:32;37.50;55.30
8953;DHT22;4511;50.890;8.054;2022-08-03T15:23:00;38.30;53.90
8953;DHT22;4511;50.890;8.054;2022-08-03T15:25:26;38.80;53.20
8953;DHT22;4511;50.890;8.054;2022-08-03T15:27:53;39.20;53.10
8953;DHT22;4511;50.890;8.054;2022-08-03T15:30:20;39.50;53.00
8953;DHT22;4511;50.890;8.054;2022-08-03T15:32:47;39.40;52.50
8953;DHT22;4511;50.890;8.054;2022-08-03T15:35:13;39.90;52.00
8953;DHT22;4511;50.890;8.054;2022-08-03T15:37:40;39.60;51.50
8953;DHT22;4511;50.890;8.054;2022-08-03T15:40:09;39.30;51.70
8953;DHT22;4511;50.890;8.054;2022-08-03T15:42:36;37.60;51.50
8953;DHT22;4511;50.890;8.054;2022-08-03T15:45:03;37.10;53.00
8953;DHT22;4511;50.890;8.054;2022-08-03T15:47:30;36.40;54.10
8953;DHT22;4511;50.890;8.054;2022-08-03T15:49:57;36.50;53.20
8953;DHT22;4511;50.890;8.054;2022-08-03T15:52:24;37.00;53.50
8953;DHT22;4511;50.890;8.054;2022-08-03T15:54:50;37.70;52.90
8953;DHT22;4511;50.890;8.054;2022-08-03T15:57:18;38.40;52.80
8953;DHT22;4511;50.890;8.054;2022-08-03T15:59:45;39.10;51.00
8953;DHT22;4511;50.890;8.054;2022-08-03T16:02:12;39.50;50.10
8953;DHT22;4511;50.890;8.054;2022-08-03T16:04:39;39.80;49.30
8953;DHT22;4511;50.890;8.054;2022-08-03T16:07:05;40.20;50.00
8953;DHT22;4511;50.890;8.054;2022-08-03T16:09:33;40.10;48.60
8953;DHT22;4511;50.890;8.054;2022-08-03T16:12:01;39.20;49.80
8953;DHT22;4511;50.890;8.054;2022-08-03T16:14:29;38.50;49.70
8953;DHT22;4511;50.890;8.054;2022-08-03T16:16:55;36.90;51.10
8953;DHT22;4511;50.890;8.054;2022-08-03T16:19:23;36.30;53.00
8953;DHT22;4511;50.890;8.054;2022-08-03T16:21:49;35.60;53.70